Time;durP1;ratioP1;P1;durP2;ratioP2;P2;SDS_P1;SDS_P2;PMS_P1;PMS_P2;Temp;Humidity;BMP_temperature;BMP_pressure;BME280_temperature;BME280_humidity;BME280_pressure;Samples;Min_cycle;Max_cycle;Signal;HPM_P1;HPM_P2
2023/08/31 00:00:14;;;;;;;8.30;2.17;;;;;;;;;;6174583;23;20017;-43
2023/08/31 00:02:44;;;;;;;13.68;3.03;;;;;;;;;;6179952;23;20016;-42
2023/08/31 00:05:13;;;;;;;9.57;2.72;;;;;;;;;;6176552;23;20020;-42
2023/08/31 00:07:41;;;;;;;9.93;3.13;;;;;;;;;;6172777;23;20012;-41
2023/08/31 00:10:11;;;;;;;13.43;3.15;;;;;;;;;;6187524;23;20508;-44
2023/08/31 00:12:40;;;;;;;9.30;3.10;;;;;;;;;;6163694;23;20413;-42
2023/08/31 00:15:09;;;;;;;7.78;2.40;;;;;;;;;;6181354;23;20056;-46
2023/08/31 00:17:38;;;;;;;8.93;2.63;;;;;;;;;;6178347;23;20168;-43
2023/08/31 00:20:11;;;;;;;8.70;3.17;;;;;;;;;;6180639;23;20100;-42
2023/08/31 00:22:40;;;;;;;12.30;3.28;;;;;;;;;;6174356;23;20456;-42
2023/08/31 00:25:09;;;;;;;8.75;2.60;;;;;;;;;;6183300;23;20019;-43
2023/08/31 00:27:37;;;;;;;9.70;2.58;;;;;;;;;;6166509;23;20012;-44
2023/08/31 00:30:07;;;;;;;10.20;3.13;;;;;;;;;;6170254;23;20021;-43
2023/08/31 00:32:35;;;;;;;7.67;2.67;;;;;;;;;;6181786;23;20024;-44
2023/08/31 00:35:08;;;;;;;8.35;2.83;;;;;;;;;;6183477;23;20013;-42
2023/08/31 00:37:38;;;;;;;9.73;3.00;;;;;;;;;;6182746;23;20024;-41
2023/08/31 00:40:08;;;;;;;10.45;3.05;;;;;;;;;;6176579;23;20020;-43
2023/08/31 00:42:37;;;;;;;8.32;3.00;;;;;;;;;;6184317;23;20456;-42
2023/08/31 00:45:05;;;;;;;8.43;3.23;;;;;;;;;;6179418;23;20096;-41
2023/08/31 00:47:33;;;;;;;8.55;2.88;;;;;;;;;;6171751;23;20821;-42
2023/08/31 00:50:01;;;;;;;7.93;3.30;;;;;;;;;;6189162;23;20086;-42
2023/08/31 00:52:30;;;;;;;11.57;3.40;;;;;;;;;;6172072;23;20440;-42
2023/08/31 00:54:59;;;;;;;11.02;4.13;;;;;;;;;;6186402;23;20013;-41
2023/08/31 00:57:27;;;;;;;8.53;3.20;;;;;;;;;;6170150;23;20585;-42
2023/08/31 00:59:56;;;;;;;9.90;3.28;;;;;;;;;;6185068;23;20058;-45
2023/08/31 01:02:30;;;;;;;7.68;2.90;;;;;;;;;;6177219;23;20013;-41
2023/08/31 01:05:22;;;;;;;9.93;3.55;;;;;;;;;;6173691;23;20024;-42
2023/08/31 01:07:52;;;;;;;10.05;3.30;;;;;;;;;;6170058;23;20219;-42
2023/08/31 01:10:26;;;;;;;9.83;3.20;;;;;;;;;;6178034;23;20024;-45
2023/08/31 01:12:55;;;;;;;9.32;3.13;;;;;;;;;;6175876;23;20021;-44
2023/08/31 01:15:24;;;;;;;10.23;3.03;;;;;;;;;;6172797;23;20599;-44
2023/08/31 01:17:54;;;;;;;11.30;3.13;;;;;;;;;;6176255;23;20043;-44
2023/08/31 01:20:27;;;;;;;8.80;3.03;;;;;;;;;;6173928;23;20013;-43
2023/08/31 01:22:59;;;;;;;11.83;3.50;;;;;;;;;;6185831;23;20016;-42
2023/08/31 01:25:30;;;;;;;9.65;2.88;;;;;;;;;;6171250;23;20039;-42
2023/08/31 01:27:59;;;;;;;9.45;2.90;;;;;;;;;;6187337;23;20016;-41
2023/08/31 01:30:30;;;;;;;10.88;3.30;;;;;;;;;;6176957;23;20997;-42
2023/08/31 01:32:58;;;;;;;10.00;3.17;;;;;;;;;;6170205;23;20014;-41
2023/08/31 01:35:27;;;;;;;8.40;2.63;;;;;;;;;;6173017;23;20044;-42
2023/08/31 01:37:57;;;;;;;7.80;2.65;;;;;;;;;;6165408;23;20403;-42
2023/08/31 01:40:28;;;;;;;7.97;2.50;;;;;;;;;;6174327;23;20515;-41
2023/08/31 01:43:03;;;;;;;8.23;3.30;;;;;;;;;;6183089;23;20024;-47
2023/08/31 01:45:31;;;;;;;9.25;3.05;;;;;;;;;;6192910;23;20017;-41
2023/08/31 01:48:07;;;;;;;7.83;2.80;;;;;;;;;;6191696;23;20399;-41
2023/08/31 01:50:35;;;;;;;9.63;2.83;;;;;;;;;;6181993;23;20657;-42
2023/08/31 01:53:04;;;;;;;8.70;2.70;;;;;;;;;;6186827;23;20091;-42
2023/08/31 01:55:32;;;;;;;7.95;2.67;;;;;;;;;;6148191;23;20639;-42
2023/08/31 01:58:01;;;;;;;9.10;3.22;;;;;;;;;;6188442;23;20017;-41
2023/08/31 02:00:34;;;;;;;9.67;3.50;;;;;;;;;;6190359;23;20016;-42
2023/08/31 02:03:03;;;;;;;8.05;3.03;;;;;;;;;;6178205;23;20396;-42
2023/08/31 02:05:31;;;;;;;9.50;2.90;;;;;;;;;;6182596;23;20440;-42
2023/08/31 02:07:58;;;;;;;9.88;3.00;;;;;;;;;;6183578;23;20024;-43
2023/08/31 02:10:27;;;;;;;8.57;2.78;;;;;;;;;;6187320;23;20024;-42
2023/08/31 02:12:56;;;;;;;9.60;2.90;;;;;;;;;;6184297;23;20019;-41
2023/08/31 02:15:25;;;;;;;9.65;2.70;;;;;;;;;;6188689;23;20455;-43
2023/08/31 02:17:54;;;;;;;9.43;3.05;;;;;;;;;;6186752;23;20506;-42
2023/08/31 02:20:24;;;;;;;10.63;3.08;;;;;;;;;;6185866;23;20375;-43
2023/08/31 02:22:51;;;;;;;9.88;3.20;;;;;;;;;;6182153;23;20261;-42
2023/08/31 02:25:20;;;;;;;8.87;3.23;;;;;;;;;;6184697;23;20039;-41
2023/08/31 02:27:47;;;;;;;9.63;2.65;;;;;;;;;;6162846;23;20016;-43
2023/08/31 02:30:16;;;;;;;10.55;3.42;;;;;;;;;;6190077;23;20368;-42
2023/08/31 02:32:47;;;;;;;9.68;2.78;;;;;;;;;;6182460;23;20366;-43
2023/08/31 02:35:14;;;;;;;9.63;2.90;;;;;;;;;;6185563;23;20067;-41
2023/08/31 02:37:42;;;;;;;8.90;2.40;;;;;;;;;;6188902;23;20060;-41
2023/08/31 02:40:10;;;;;;;8.50;3.00;;;;;;;;;;6186945;23;20553;-42
2023/08/31 02:42:38;;;;;;;10.15;2.72;;;;;;;;;;6183498;23;20021;-42
2023/08/31 02:45:07;;;;;;;17.55;3.10;;;;;;;;;;6195748;23;20336;-42
2023/08/31 02:47:34;;;;;;;9.55;3.08;;;;;;;;;;6181779;23;20016;-42
2023/08/31 02:50:04;;;;;;;9.97;3.00;;;;;;;;;;6192109;23;20016;-45
2023/08/31 02:52:32;;;;;;;7.38;2.50;;;;;;;;;;6176903;23;20031;-44
2023/08/31 02:55:03;;;;;;;7.55;3.10;;;;;;;;;;6190322;23;20510;-41
2023/08/31 02:57:31;;;;;;;8.80;2.70;;;;;;;;;;6190881;23;20028;-42
2023/08/31 02:59:58;;;;;;;9.93;3.22;;;;;;;;;;6174594;23;20017;-41
2023/08/31 03:02:28;;;;;;;7.33;2.70;;;;;;;;;;6191331;23;20020;-42
2023/08/31 03:04:56;;;;;;;10.20;3.28;;;;;;;;;;6191392;23;20037;-41
2023/08/31 03:07:25;;;;;;;8.68;3.00;;;;;;;;;;6188987;23;20892;-41
2023/08/31 03:09:53;;;;;;;10.88;3.22;;;;;;;;;;6193903;23;20016;-43
2023/08/31 03:12:23;;;;;;;9.32;2.90;;;;;;;;;;6168468;23;20429;-42
2023/08/31 03:14:50;;;;;;;7.03;2.33;;;;;;;;;;6188485;23;20438;-45
2023/08/31 03:17:18;;;;;;;7.57;2.67;;;;;;;;;;6192126;23;20730;-43
2023/08/31 03:19:46;;;;;;;9.05;3.05;;;;;;;;;;6186891;23;20016;-42
2023/08/31 03:22:14;;;;;;;9.57;3.08;;;;;;;;;;6180883;23;20012;-46
2023/08/31 03:24:45;;;;;;;11.88;3.28;;;;;;;;;;6186152;23;20013;-45
2023/08/31 03:27:13;;;;;;;8.07;2.60;;;;;;;;;;6177672;23;20020;-47
2023/08/31 03:29:41;;;;;;;8.82;2.58;;;;;;;;;;6167796;23;20013;-44
2023/08/31 03:32:09;;;;;;;9.20;3.30;;;;;;;;;;6186982;23;20471;-43
2023/08/31 03:34:36;;;;;;;7.75;2.88;;;;;;;;;;6184710;23;20600;-44
2023/08/31 03:37:04;;;;;;;10.32;3.20;;;;;;;;;;6191785;23;20021;-43
2023/08/31 03:39:33;;;;;;;13.53;3.50;;;;;;;;;;6185929;23;20039;-42
2023/08/31 03:42:02;;;;;;;7.95;2.83;;;;;;;;;;6191011;23;20023;-43
2023/08/31 03:44:30;;;;;;;9.43;3.20;;;;;;;;;;6181053;23;20020;-43
2023/08/31 03:46:58;;;;;;;8.50;3.15;;;;;;;;;;6180152;23;20577;-44
2023/08/31 03:49:25;;;;;;;9.90;3.53;;;;;;;;;;6193122;23;20039;-41
2023/08/31 03:51:53;;;;;;;15.37;3.80;;;;;;;;;;6186926;23;20016;-41
2023/08/31 03:54:21;;;;;;;8.82;3.05;;;;;;;;;;6181493;23;20012;-42
2023/08/31 03:56:49;;;;;;;11.30;3.20;;;;;;;;;;6173344;23;20012;-42
2023/08/31 03:59:21;;;;;;;8.63;3.33;;;;;;;;;;6191601;23;20083;-43
2023/08/31 04:01:49;;;;;;;8.93;3.17;;;;;;;;;;6189878;23;20036;-42
2023/08/31 04:04:17;;;;;;;10.73;3.13;;;;;;;;;;6190197;23;20055;-41
2023/08/31 04:06:45;;;;;;;8.57;3.00;;;;;;;;;;6183888;23;20023;-41
2023/08/31 04:09:13;;;;;;;12.43;3.28;;;;;;;;;;6193661;23;20372;-41
2023/08/31 04:11:40;;;;;;;9.52;3.20;;;;;;;;;;6179799;23;20724;-40
2023/08/31 04:14:08;;;;;;;10.30;3.08;;;;;;;;;;6194168;23;20012;-44
2023/08/31 04:16:37;;;;;;;8.77;3.30;;;;;;;;;;6177095;23;20013;-41
2023/08/31 04:19:05;;;;;;;7.97;3.35;;;;;;;;;;6189402;23;20020;-42
2023/08/31 04:21:33;;;;;;;13.40;3.72;;;;;;;;;;6178172;23;20023;-41
2023/08/31 04:24:02;;;;;;;9.07;2.90;;;;;;;;;;6191190;23;20024;-41
2023/08/31 04:26:30;;;;;;;7.57;3.13;;;;;;;;;;6177127;23;20013;-41
2023/08/31 04:28:58;;;;;;;9.50;2.83;;;;;;;;;;6191084;23;20031;-43
2023/08/31 04:31:26;;;;;;;9.82;3.28;;;;;;;;;;6171737;23;20475;-41
2023/08/31 04:33:56;;;;;;;10.13;3.35;;;;;;;;;;6193324;23;20017;-42
2023/08/31 04:36:24;;;;;;;9.73;3.92;;;;;;;;;;6183102;23;20012;-42
2023/08/31 04:38:51;;;;;;;9.35;3.45;;;;;;;;;;6184851;23;20028;-42
2023/08/31 04:41:19;;;;;;;10.43;3.00;;;;;;;;;;6179303;23;20747;-42
2023/08/31 04:43:48;;;;;;;7.93;2.72;;;;;;;;;;6176621;23;20013;-42
2023/08/31 04:46:17;;;;;;;8.85;2.85;;;;;;;;;;6183883;23;20017;-41
2023/08/31 04:48:44;;;;;;;8.80;3.03;;;;;;;;;;6171145;23;20016;-41
2023/08/31 04:51:27;;;;;;;11.90;3.55;;;;;;;;;;6183129;23;20016;-41
2023/08/31 04:53:57;;;;;;;7.83;3.23;;;;;;;;;;6177554;23;20192;-41
2023/08/31 04:56:24;;;;;;;9.18;3.33;;;;;;;;;;6189367;23;20016;-41
2023/08/31 04:58:52;;;;;;;7.90;3.13;;;;;;;;;;6170303;23;20488;-42
2023/08/31 05:01:20;;;;;;;8.25;3.20;;;;;;;;;;6185480;23;20016;-43
2023/08/31 05:03:48;;;;;;;10.18;3.28;;;;;;;;;;6173938;23;20435;-43
2023/08/31 05:06:17;;;;;;;8.93;3.20;;;;;;;;;;6182809;23;20023;-43
2023/08/31 05:08:47;;;;;;;10.77;3.55;;;;;;;;;;6183243;23;20470;-41
2023/08/31 05:11:16;;;;;;;8.48;2.97;;;;;;;;;;6181943;23;20023;-41
2023/08/31 05:13:44;;;;;;;9.13;3.17;;;;;;;;;;6178659;23;20020;-41
2023/08/31 05:16:12;;;;;;;9.27;3.10;;;;;;;;;;6174899;23;20091;-41
2023/08/31 05:18:40;;;;;;;11.23;4.00;;;;;;;;;;6184196;23;20093;-42
2023/08/31 05:21:08;;;;;;;8.77;3.17;;;;;;;;;;6178174;23;20110;-45
2023/08/31 05:23:36;;;;;;;10.43;3.55;;;;;;;;;;6185950;23;20023;-41
2023/08/31 05:26:04;;;;;;;10.65;3.53;;;;;;;;;;6161475;23;20423;-41
2023/08/31 05:28:33;;;;;;;10.00;3.72;;;;;;;;;;6184000;23;20036;-45
2023/08/31 05:31:02;;;;;;;10.80;3.93;;;;;;;;;;6173304;23;20206;-41
2023/08/31 05:33:33;;;;;;;8.88;3.03;;;;;;;;;;6181504;23;20055;-42
2023/08/31 05:36:03;;;;;;;8.75;3.08;;;;;;;;;;6180992;23;20020;-43
2023/08/31 05:38:31;;;;;;;10.55;3.13;;;;;;;;;;6182350;23;20190;-41
2023/08/31 05:41:09;;;;;;;9.43;3.47;;;;;;;;;;6189798;23;20017;-42
2023/08/31 05:43:40;;;;;;;12.20;3.40;;;;;;;;;;6190193;23;20067;-43
2023/08/31 05:46:08;;;;;;;8.52;3.15;;;;;;;;;;6180894;23;20016;-45
2023/08/31 05:48:38;;;;;;;10.50;3.28;;;;;;;;;;6176762;23;20587;-42
2023/08/31 05:51:06;;;;;;;10.48;3.35;;;;;;;;;;6190193;23;20024;-43
2023/08/31 05:53:34;;;;;;;9.90;3.42;;;;;;;;;;6175752;23;20020;-44
2023/08/31 05:56:04;;;;;;;10.80;3.60;;;;;;;;;;6195286;23;20024;-42
2023/08/31 05:58:33;;;;;;;8.13;3.00;;;;;;;;;;6163534;23;20504;-41
2023/08/31 06:01:03;;;;;;;8.98;3.35;;;;;;;;;;6185408;23;20378;-42
2023/08/31 06:03:31;;;;;;;9.65;3.42;;;;;;;;;;6170265;23;20413;-42
2023/08/31 06:05:59;;;;;;;9.68;3.55;;;;;;;;;;6187653;23;20679;-42
2023/08/31 06:08:26;;;;;;;9.63;3.40;;;;;;;;;;6176433;23;20020;-42
2023/08/31 06:10:54;;;;;;;10.77;3.72;;;;;;;;;;6185607;23;20023;-42
2023/08/31 06:13:23;;;;;;;12.52;3.67;;;;;;;;;;6178210;23;20016;-43
2023/08/31 06:15:50;;;;;;;10.85;3.72;;;;;;;;;;6179400;23;20320;-42
2023/08/31 06:18:19;;;;;;;10.57;3.67;;;;;;;;;;6170844;23;20100;-46
2023/08/31 06:20:49;;;;;;;12.03;3.43;;;;;;;;;;6192677;23;20357;-41
2023/08/31 06:23:17;;;;;;;11.55;3.17;;;;;;;;;;6170337;23;20355;-42
2023/08/31 06:25:47;;;;;;;11.30;3.58;;;;;;;;;;6184176;23;20024;-44
2023/08/31 06:28:16;;;;;;;10.55;3.63;;;;;;;;;;6185320;23;20021;-43
2023/08/31 06:30:46;;;;;;;9.77;3.85;;;;;;;;;;6168842;23;20024;-41
2023/08/31 06:33:14;;;;;;;11.40;3.60;;;;;;;;;;6181762;23;20044;-44
2023/08/31 06:35:46;;;;;;;9.23;3.33;;;;;;;;;;6184059;23;20071;-43
2023/08/31 06:38:13;;;;;;;9.52;3.60;;;;;;;;;;6187877;23;20459;-41
2023/08/31 06:40:42;;;;;;;13.13;4.28;;;;;;;;;;6185586;23;20020;-43
2023/08/31 06:43:10;;;;;;;15.38;4.35;;;;;;;;;;6171006;23;20043;-42
2023/08/31 06:45:40;;;;;;;12.10;4.17;;;;;;;;;;6170644;23;20021;-42
2023/08/31 06:48:08;;;;;;;12.02;3.78;;;;;;;;;;6179676;23;20071;-46
2023/08/31 06:50:36;;;;;;;8.98;3.28;;;;;;;;;;6169845;23;20048;-43
2023/08/31 06:53:05;;;;;;;9.93;3.35;;;;;;;;;;6137886;23;20040;-41
2023/08/31 06:55:33;;;;;;;10.35;3.28;;;;;;;;;;6171579;23;20425;-42
2023/08/31 06:58:02;;;;;;;14.27;3.57;;;;;;;;;;6179374;23;20039;-41
2023/08/31 07:00:32;;;;;;;14.05;4.35;;;;;;;;;;6175348;23;20021;-41
2023/08/31 07:03:00;;;;;;;11.48;3.67;;;;;;;;;;6184970;23;20623;-42
2023/08/31 07:05:29;;;;;;;8.45;3.58;;;;;;;;;;6172526;23;20448;-42
2023/08/31 07:08:05;;;;;;;11.05;4.28;;;;;;;;;;6183124;23;20092;-43
2023/08/31 07:10:36;;;;;;;13.07;4.00;;;;;;;;;;6181398;23;20021;-42
2023/08/31 07:13:04;;;;;;;8.48;3.67;;;;;;;;;;6173708;23;20031;-42
2023/08/31 07:15:32;;;;;;;10.93;4.32;;;;;;;;;;6185507;23;20096;-41
2023/08/31 07:18:00;;;;;;;9.63;3.80;;;;;;;;;;6176644;23;20013;-44
2023/08/31 07:20:29;;;;;;;12.05;3.95;;;;;;;;;;6184529;23;20063;-44
2023/08/31 07:22:56;;;;;;;12.47;3.57;;;;;;;;;;6183950;23;20089;-42
2023/08/31 07:25:24;;;;;;;12.50;4.25;;;;;;;;;;6179538;23;20609;-42
2023/08/31 07:27:53;;;;;;;10.55;3.40;;;;;;;;;;6174173;23;20459;-42
2023/08/31 07:30:21;;;;;;;11.02;4.20;;;;;;;;;;6181142;23;20013;-42
2023/08/31 07:32:49;;;;;;;9.27;4.22;;;;;;;;;;6172797;23;20031;-41
2023/08/31 07:35:16;;;;;;;14.97;4.50;;;;;;;;;;6174567;23;20428;-43
2023/08/31 07:37:45;;;;;;;13.60;3.97;;;;;;;;;;6173021;23;20535;-43
2023/08/31 07:40:14;;;;;;;13.25;4.13;;;;;;;;;;6178743;23;20024;-41
2023/08/31 07:42:42;;;;;;;13.43;4.03;;;;;;;;;;6169885;23;20078;-43
2023/08/31 07:45:11;;;;;;;13.57;3.97;;;;;;;;;;6191166;23;20016;-43
2023/08/31 07:47:39;;;;;;;14.47;4.33;;;;;;;;;;6167333;23;20025;-42
2023/08/31 07:50:07;;;;;;;12.45;4.20;;;;;;;;;;6183231;23;20499;-41
2023/08/31 07:52:38;;;;;;;13.80;4.38;;;;;;;;;;6128099;23;20111;-42
2023/08/31 07:55:06;;;;;;;11.75;4.03;;;;;;;;;;6168332;23;20024;-43
2023/08/31 07:57:35;;;;;;;11.02;3.60;;;;;;;;;;6187829;23;20103;-42
2023/08/31 08:00:03;;;;;;;12.17;3.73;;;;;;;;;;6177121;23;20962;-42
2023/08/31 08:02:33;;;;;;;12.02;4.10;;;;;;;;;;6175025;23;20014;-45
2023/08/31 08:05:03;;;;;;;11.48;3.35;;;;;;;;;;6137715;23;20016;-42
2023/08/31 08:07:31;;;;;;;9.40;3.47;;;;;;;;;;6160532;23;20515;-43
2023/08/31 08:09:59;;;;;;;10.48;3.75;;;;;;;;;;6156455;23;20017;-42
2023/08/31 08:12:27;;;;;;;9.03;3.23;;;;;;;;;;6169809;23;20087;-42
2023/08/31 08:14:56;;;;;;;14.25;2.95;;;;;;;;;;6157650;23;20103;-42
2023/08/31 08:17:24;;;;;;;10.82;3.30;;;;;;;;;;6171405;23;20022;-43
2023/08/31 08:19:53;;;;;;;8.50;3.20;;;;;;;;;;6158648;23;20027;-41
2023/08/31 08:22:20;;;;;;;11.50;3.38;;;;;;;;;;6173953;23;20032;-41
2023/08/31 08:24:48;;;;;;;7.43;2.83;;;;;;;;;;6157393;23;20023;-44
2023/08/31 08:27:17;;;;;;;11.80;3.20;;;;;;;;;;6172206;23;20456;-43
2023/08/31 08:29:45;;;;;;;9.10;3.17;;;;;;;;;;6154028;23;20016;-44
2023/08/31 08:32:15;;;;;;;9.73;2.88;;;;;;;;;;6168842;23;20522;-43
2023/08/31 08:34:44;;;;;;;8.73;2.97;;;;;;;;;;6158486;23;20400;-42
2023/08/31 08:37:13;;;;;;;8.53;2.43;;;;;;;;;;6176621;23;20021;-41
2023/08/31 08:39:41;;;;;;;8.57;2.78;;;;;;;;;;6164391;23;20619;-42
2023/08/31 08:42:10;;;;;;;9.38;2.47;;;;;;;;;;6183980;23;20074;-43
2023/08/31 08:44:38;;;;;;;7.25;2.70;;;;;;;;;;6175656;23;20017;-42
2023/08/31 08:47:07;;;;;;;9.07;2.58;;;;;;;;;;6121710;23;20028;-41
2023/08/31 08:49:36;;;;;;;10.77;2.60;;;;;;;;;;6185672;23;20436;-44
2023/08/31 08:52:04;;;;;;;9.25;2.80;;;;;;;;;;6144704;23;20308;-41
2023/08/31 08:54:33;;;;;;;8.85;2.65;;;;;;;;;;6161332;23;20016;-41
2023/08/31 08:57:15;;;;;;;9.43;2.95;;;;;;;;;;6172837;23;20016;-42
2023/08/31 08:59:43;;;;;;;9.38;2.85;;;;;;;;;;6148169;23;20020;-42
2023/08/31 09:02:11;;;;;;;9.90;2.90;;;;;;;;;;6160584;23;20352;-43
2023/08/31 09:04:38;;;;;;;7.30;2.42;;;;;;;;;;6181798;23;20021;-42
2023/08/31 09:07:07;;;;;;;8.30;2.95;;;;;;;;;;6174672;23;20815;-42
2023/08/31 09:09:48;;;;;;;8.20;2.88;;;;;;;;;;6167841;23;20017;-43
2023/08/31 09:12:16;;;;;;;8.00;2.90;;;;;;;;;;6189049;23;20027;-43
2023/08/31 09:14:44;;;;;;;9.10;2.63;;;;;;;;;;6162418;23;20070;-42
2023/08/31 09:17:11;;;;;;;7.28;1.60;;;;;;;;;;6185644;23;20012;-41
2023/08/31 09:19:39;;;;;;;8.40;2.15;;;;;;;;;;6174841;23;20031;-41
2023/08/31 09:22:07;;;;;;;6.55;2.13;;;;;;;;;;6180611;23;20394;-44
2023/08/31 09:24:44;;;;;;;7.10;1.88;;;;;;;;;;6167548;23;20459;-41
2023/08/31 09:27:15;;;;;;;7.00;2.00;;;;;;;;;;6184088;23;20360;-44
2023/08/31 09:29:45;;;;;;;6.05;1.65;;;;;;;;;;6182662;23;20013;-41
2023/08/31 09:32:17;;;;;;;6.80;1.58;;;;;;;;;;6158865;23;20586;-42
2023/08/31 09:34:45;;;;;;;6.43;1.70;;;;;;;;;;6169883;23;20317;-43
2023/08/31 09:37:17;;;;;;;6.00;2.03;;;;;;;;;;6150457;23;20308;-42
2023/08/31 09:39:46;;;;;;;5.57;1.80;;;;;;;;;;6178860;23;20026;-44
2023/08/31 09:42:14;;;;;;;5.95;1.98;;;;;;;;;;6162122;23;20777;-42
2023/08/31 09:44:44;;;;;;;8.25;2.00;;;;;;;;;;6166110;23;20021;-41
2023/08/31 09:47:13;;;;;;;7.90;1.92;;;;;;;;;;6168603;23;20017;-44
2023/08/31 09:49:42;;;;;;;5.57;1.90;;;;;;;;;;6186905;23;20028;-42
2023/08/31 09:52:10;;;;;;;8.03;2.30;;;;;;;;;;6132778;23;20041;-42
2023/08/31 09:54:38;;;;;;;8.98;1.50;;;;;;;;;;6163647;23;20017;-42
2023/08/31 09:57:07;;;;;;;7.80;1.65;;;;;;;;;;6164407;23;20021;-42
2023/08/31 09:59:35;;;;;;;6.05;1.60;;;;;;;;;;6171035;23;20070;-42
2023/08/31 10:02:03;;;;;;;7.82;1.85;;;;;;;;;;6155551;23;20025;-42
2023/08/31 10:04:33;;;;;;;6.17;1.43;;;;;;;;;;6163017;23;20016;-42
2023/08/31 10:07:01;;;;;;;5.97;1.95;;;;;;;;;;6145138;23;20017;-41
2023/08/31 10:09:29;;;;;;;7.30;2.55;;;;;;;;;;6168320;23;20095;-43
2023/08/31 10:11:57;;;;;;;6.70;1.55;;;;;;;;;;6154554;23;20035;-42
2023/08/31 10:14:28;;;;;;;8.48;1.90;;;;;;;;;;6165207;23;20024;-43
2023/08/31 10:16:57;;;;;;;6.30;2.23;;;;;;;;;;6151479;23;20537;-42
2023/08/31 10:19:25;;;;;;;8.05;2.08;;;;;;;;;;6161294;23;20397;-43
2023/08/31 10:21:53;;;;;;;6.82;2.53;;;;;;;;;;6145987;23;20021;-42
2023/08/31 10:24:39;;;;;;;7.63;2.30;;;;;;;;;;6151015;23;20096;-44
2023/08/31 10:27:19;;;;;;;8.05;2.92;;;;;;;;;;6154931;23;20024;-44
2023/08/31 10:29:48;;;;;;;7.43;3.17;;;;;;;;;;6149165;23;20431;-42
2023/08/31 10:32:18;;;;;;;6.05;2.25;;;;;;;;;;6147103;23;20227;-41
2023/08/31 10:35:04;;;;;;;9.18;2.70;;;;;;;;;;6141214;23;20017;-41
2023/08/31 10:37:32;;;;;;;7.18;2.10;;;;;;;;;;6147548;23;20078;-44
2023/08/31 10:40:11;;;;;;;10.32;2.63;;;;;;;;;;6154996;23;20078;-45
2023/08/31 10:42:43;;;;;;;8.37;2.60;;;;;;;;;;6142660;23;20095;-42
2023/08/31 10:45:13;;;;;;;6.57;2.30;;;;;;;;;;6164947;23;20044;-43
2023/08/31 10:47:41;;;;;;;6.68;2.90;;;;;;;;;;6145985;23;20391;-42
2023/08/31 10:50:23;;;;;;;8.75;2.85;;;;;;;;;;6173523;23;20020;-42
2023/08/31 10:52:51;;;;;;;7.97;1.90;;;;;;;;;;6154861;23;20446;-42
2023/08/31 10:55:19;;;;;;;7.10;1.90;;;;;;;;;;6157552;23;20024;-41
2023/08/31 10:57:46;;;;;;;5.22;2.00;;;;;;;;;;6160851;23;20016;-43
2023/08/31 11:00:36;;;;;;;7.20;2.08;;;;;;;;;;6166177;23;20691;-42
2023/08/31 11:03:04;;;;;;;5.93;1.90;;;;;;;;;;6160236;23;20380;-47
2023/08/31 11:05:35;;;;;;;6.10;1.85;;;;;;;;;;6157992;23;20024;-43
2023/08/31 11:08:07;;;;;;;5.63;1.80;;;;;;;;;;6162519;23;20016;-46
2023/08/31 11:10:35;;;;;;;7.22;2.20;;;;;;;;;;6154225;23;20132;-43
2023/08/31 11:13:03;;;;;;;6.68;1.40;;;;;;;;;;6159992;23;20380;-44
2023/08/31 11:15:33;;;;;;;5.50;1.50;;;;;;;;;;6142192;23;20093;-43
2023/08/31 11:18:00;;;;;;;7.28;1.92;;;;;;;;;;6149621;23;20023;-41
2023/08/31 11:20:31;;;;;;;6.43;1.70;;;;;;;;;;6166792;23;20031;-47
2023/08/31 11:23:02;;;;;;;6.63;2.42;;;;;;;;;;6162171;23;20029;-43
2023/08/31 11:25:32;;;;;;;7.05;1.83;;;;;;;;;;6152996;23;20055;-43
2023/08/31 11:28:04;;;;;;;6.60;2.20;;;;;;;;;;6161797;23;20027;-44
2023/08/31 11:30:34;;;;;;;6.18;2.22;;;;;;;;;;6163757;23;20016;-42
2023/08/31 11:33:03;;;;;;;6.23;2.33;;;;;;;;;;6171680;23;20021;-43
2023/08/31 11:35:33;;;;;;;7.35;2.25;;;;;;;;;;6115231;23;20031;-43
2023/08/31 11:38:06;;;;;;;8.93;2.60;;;;;;;;;;6167464;23;20027;-43
2023/08/31 11:40:34;;;;;;;7.50;2.88;;;;;;;;;;6173724;23;20051;-42
2023/08/31 11:43:06;;;;;;;8.10;2.03;;;;;;;;;;6159929;23;20055;-43
2023/08/31 11:45:36;;;;;;;6.97;2.73;;;;;;;;;;6161731;23;20016;-43
2023/08/31 11:48:05;;;;;;;6.47;2.55;;;;;;;;;;6157665;23;20067;-43
2023/08/31 11:50:32;;;;;;;6.55;2.40;;;;;;;;;;6170442;23;20039;-43
2023/08/31 11:53:00;;;;;;;6.80;2.40;;;;;;;;;;6161058;23;20031;-42
2023/08/31 11:55:32;;;;;;;6.55;2.53;;;;;;;;;;6154430;23;20023;-43
2023/08/31 11:58:00;;;;;;;6.50;2.40;;;;;;;;;;6170609;23;20095;-42
2023/08/31 12:00:28;;;;;;;7.03;2.42;;;;;;;;;;6160140;23;20345;-43
2023/08/31 12:02:59;;;;;;;8.75;2.25;;;;;;;;;;6175469;23;20494;-43
2023/08/31 12:05:27;;;;;;;5.72;2.22;;;;;;;;;;6149898;23;20040;-43
2023/08/31 12:07:56;;;;;;;5.10;1.83;;;;;;;;;;6156030;23;20021;-42
2023/08/31 12:10:25;;;;;;;8.37;1.93;;;;;;;;;;6161721;23;20456;-43
2023/08/31 12:12:55;;;;;;;6.00;1.77;;;;;;;;;;6165084;23;20044;-43
2023/08/31 12:15:24;;;;;;;5.82;2.28;;;;;;;;;;6153226;23;20771;-43
2023/08/31 12:17:54;;;;;;;6.68;2.35;;;;;;;;;;6162334;23;20024;-42
2023/08/31 12:20:27;;;;;;;5.82;2.10;;;;;;;;;;6152150;23;20020;-44
2023/08/31 12:22:56;;;;;;;6.43;2.80;;;;;;;;;;6169248;23;20020;-44
2023/08/31 12:25:24;;;;;;;7.10;2.92;;;;;;;;;;6139870;23;20448;-43
2023/08/31 12:27:52;;;;;;;6.95;2.35;;;;;;;;;;6161553;23;20071;-43
2023/08/31 12:30:21;;;;;;;8.07;2.67;;;;;;;;;;6163906;23;20025;-42
2023/08/31 12:32:50;;;;;;;6.53;3.40;;;;;;;;;;6148100;23;20716;-44
2023/08/31 12:35:18;;;;;;;7.17;2.90;;;;;;;;;;6157042;23;20589;-42
2023/08/31 12:37:47;;;;;;;9.18;2.88;;;;;;;;;;6164855;23;20084;-43
2023/08/31 12:40:15;;;;;;;6.68;3.38;;;;;;;;;;6166551;23;20029;-44
2023/08/31 12:42:43;;;;;;;7.85;3.33;;;;;;;;;;6080064;23;20024;-44
2023/08/31 12:45:11;;;;;;;6.05;2.50;;;;;;;;;;6153873;23;20024;-45
2023/08/31 12:47:41;;;;;;;7.50;3.20;;;;;;;;;;6143633;23;20487;-43
2023/08/31 12:50:11;;;;;;;7.90;3.60;;;;;;;;;;6149995;23;20013;-43
2023/08/31 12:52:44;;;;;;;8.85;3.35;;;;;;;;;;6151498;23;20035;-43
2023/08/31 12:55:14;;;;;;;8.57;4.05;;;;;;;;;;6135864;23;20012;-43
2023/08/31 12:57:42;;;;;;;8.98;3.88;;;;;;;;;;6123184;23;20020;-43
2023/08/31 13:00:12;;;;;;;7.33;3.40;;;;;;;;;;6119995;23;20087;-43
2023/08/31 13:02:40;;;;;;;10.57;4.18;;;;;;;;;;6165543;23;20025;-45
2023/08/31 13:05:09;;;;;;;8.80;4.38;;;;;;;;;;6142819;23;20012;-42
2023/08/31 13:07:37;;;;;;;8.15;3.65;;;;;;;;;;6155392;23;20095;-45
2023/08/31 13:10:06;;;;;;;8.57;4.20;;;;;;;;;;6150465;23;20084;-45
2023/08/31 13:12:37;;;;;;;7.60;3.80;;;;;;;;;;6160001;23;20087;-43
2023/08/31 13:15:04;;;;;;;8.65;3.95;;;;;;;;;;6152420;23;20322;-45
2023/08/31 13:17:32;;;;;;;7.82;3.88;;;;;;;;;;6164701;23;20021;-45
2023/08/31 13:20:00;;;;;;;9.02;4.82;;;;;;;;;;6142676;23;20099;-44
2023/08/31 13:22:29;;;;;;;9.75;5.07;;;;;;;;;;6168671;23;20020;-43
2023/08/31 13:24:58;;;;;;;7.80;3.80;;;;;;;;;;6152752;23;20459;-43
2023/08/31 13:27:27;;;;;;;9.15;4.13;;;;;;;;;;6147575;23;20016;-42
2023/08/31 13:29:56;;;;;;;9.05;4.20;;;;;;;;;;6108091;23;20013;-44
2023/08/31 13:32:24;;;;;;;9.60;4.40;;;;;;;;;;6167475;23;20016;-43
2023/08/31 13:34:53;;;;;;;8.25;4.38;;;;;;;;;;6138132;23;20020;-43
2023/08/31 13:37:23;;;;;;;12.00;4.20;;;;;;;;;;6168160;23;20031;-43
2023/08/31 13:39:51;;;;;;;7.57;4.03;;;;;;;;;;6106007;23;20028;-44
2023/08/31 13:42:21;;;;;;;8.15;3.95;;;;;;;;;;6153573;23;20239;-43
2023/08/31 13:44:48;;;;;;;7.60;3.97;;;;;;;;;;6146798;23;20016;-46
2023/08/31 13:47:17;;;;;;;6.72;3.15;;;;;;;;;;6156586;23;20024;-42
2023/08/31 13:49:45;;;;;;;6.47;2.50;;;;;;;;;;6173819;23;20016;-43
2023/08/31 13:52:13;;;;;;;10.23;2.63;;;;;;;;;;6160383;23;20021;-42
2023/08/31 13:54:41;;;;;;;6.68;2.70;;;;;;;;;;6164908;23;20031;-43
2023/08/31 13:57:09;;;;;;;5.93;2.35;;;;;;;;;;6159908;23;20020;-48
2023/08/31 13:59:36;;;;;;;5.60;2.30;;;;;;;;;;6166244;23;20037;-43
2023/08/31 14:02:05;;;;;;;5.57;2.20;;;;;;;;;;6159257;23;20023;-43
2023/08/31 14:04:34;;;;;;;4.38;1.52;;;;;;;;;;6152607;23;20506;-43
2023/08/31 14:07:02;;;;;;;4.65;1.20;;;;;;;;;;6166249;23;20009;-43
2023/08/31 14:09:30;;;;;;;4.07;1.23;;;;;;;;;;6160251;23;20020;-44
2023/08/31 14:11:58;;;;;;;5.70;0.88;;;;;;;;;;6170297;23;20017;-44
2023/08/31 14:14:27;;;;;;;4.57;0.87;;;;;;;;;;6157784;23;20025;-43
2023/08/31 14:17:01;;;;;;;5.25;0.90;;;;;;;;;;6173290;23;20013;-44
2023/08/31 14:19:31;;;;;;;4.90;1.10;;;;;;;;;;6158920;23;20025;-45
2023/08/31 14:22:01;;;;;;;4.93;1.00;;;;;;;;;;6157919;23;20016;-43
2023/08/31 14:24:29;;;;;;;3.83;1.30;;;;;;;;;;6149609;23;20035;-45
2023/08/31 14:26:58;;;;;;;4.27;1.40;;;;;;;;;;6161260;23;20025;-44
2023/08/31 14:29:26;;;;;;;4.40;1.02;;;;;;;;;;6179291;23;20016;-46
2023/08/31 14:31:54;;;;;;;3.95;1.08;;;;;;;;;;6184789;23;20088;-45
2023/08/31 14:34:24;;;;;;;4.05;1.17;;;;;;;;;;6175046;23;20013;-46
2023/08/31 14:36:54;;;;;;;4.22;1.15;;;;;;;;;;6185555;23;20056;-43
2023/08/31 14:39:29;;;;;;;4.70;1.10;;;;;;;;;;6183441;23;20024;-44
2023/08/31 14:41:57;;;;;;;5.00;1.40;;;;;;;;;;6185372;23;20019;-44
2023/08/31 14:44:26;;;;;;;5.47;1.40;;;;;;;;;;6174976;23;20024;-42
2023/08/31 14:46:53;;;;;;;3.63;0.65;;;;;;;;;;6165016;23;20012;-43
2023/08/31 14:49:24;;;;;;;4.57;1.70;;;;;;;;;;6176677;23;20047;-43
2023/08/31 14:51:52;;;;;;;5.60;1.53;;;;;;;;;;6177713;23;20051;-42